sensor_id;sensor_type;location;lat;lon;timestamp;temperature;humidity
19906;DHT22;10115;50.906;4.438;2023-03-01T00:02:20;-0.20;99.90
19906;DHT22;10115;50.906;4.438;2023-03-01T00:04:46;-0.20;99.90
19906;DHT22;10115;50.906;4.438;2023-03-01T00:07:12;-0.20;99.90
19906;DHT22;10115;50.906;4.438;2023-03-01T00:09:37;-0.30;99.90
19906;DHT22;10115;50.906;4.438;2023-03-01T00:12:03;-0.30;99.90
19906;DHT22;10115;50.906;4.438;2023-03-01T00:14:29;-0.30;99.90
19906;DHT22;10115;50.906;4.438;2023-03-01T00:16:55;-0.30;99.90
19906;DHT22;10115;50.906;4.438;2023-03-01T00:19:21;-0.30;99.90
19906;DHT22;10115;50.906;4.438;2023-03-01T00:21:50;-0.30;99.90
19906;DHT22;10115;50.906;4.438;2023-03-01T00:24:15;-0.40;99.90
19906;DHT22;10115;50.906;4.438;2023-03-01T00:26:42;-0.40;99.90
19906;DHT22;10115;50.906;4.438;2023-03-01T00:29:07;-0.50;99.90
19906;DHT22;10115;50.906;4.438;2023-03-01T00:31:33;-0.60;99.90
19906;DHT22;10115;50.906;4.438;2023-03-01T00:34:03;-0.60;99.90
19906;DHT22;10115;50.906;4.438;2023-03-01T00:36:31;-0.60;99.90
19906;DHT22;10115;50.906;4.438;2023-03-01T00:38:57;-0.60;99.90
19906;DHT22;10115;50.906;4.438;2023-03-01T00:41:24;-0.60;99.90
19906;DHT22;10115;50.906;4.438;2023-03-01T00:43:52;-0.60;99.90
19906;DHT22;10115;50.906;4.438;2023-03-01T00:46:20;-0.70;99.90
19906;DHT22;10115;50.906;4.438;2023-03-01T00:48:47;-0.70;99.90
19906;DHT22;10115;50.906;4.438;2023-03-01T00:51:18;-0.80;99.90
19906;DHT22;10115;50.906;4.438;2023-03-01T00:53:47;-0.80;99.90
19906;DHT22;10115;50.906;4.438;2023-03-01T00:56:15;-0.90;99.90
19906;DHT22;10115;50.906;4.438;2023-03-01T00:58:41;-0.90;99.90
19906;DHT22;10115;50.906;4.438;2023-03-01T01:01:08;-0.90;99.90
19906;DHT22;10115;50.906;4.438;2023-03-01T01:03:52;-0.90;99.90
19906;DHT22;10115;50.906;4.438;2023-03-01T01:06:21;-0.90;99.90
19906;DHT22;10115;50.906;4.438;2023-03-01T01:08:48;-1.00;99.90
19906;DHT22;10115;50.906;4.438;2023-03-01T01:11:14;-1.00;99.90
19906;DHT22;10115;50.906;4.438;2023-03-01T01:13:40;-1.00;99.90
19906;DHT22;10115;50.906;4.438;2023-03-01T01:16:07;-1.00;99.90
19906;DHT22;10115;50.906;4.438;2023-03-01T01:18:33;-1.10;99.90
19906;DHT22;10115;50.906;4.438;2023-03-01T01:21:06;-1.00;99.90
19906;DHT22;10115;50.906;4.438;2023-03-01T01:23:33;-1.10;99.90
19906;DHT22;10115;50.906;4.438;2023-03-01T01:26:04;-1.10;99.90
19906;DHT22;10115;50.906;4.438;2023-03-01T01:28:30;-1.10;99.90
19906;DHT22;10115;50.906;4.438;2023-03-01T01:30:56;-1.00;99.90
19906;DHT22;10115;50.906;4.438;2023-03-01T01:33:21;-1.00;99.90
19906;DHT22;10115;50.906;4.438;2023-03-01T01:35:47;-1.00;99.90
19906;DHT22;10115;50.906;4.438;2023-03-01T01:38:13;-1.10;99.90
19906;DHT22;10115;50.906;4.438;2023-03-01T01:40:46;-1.10;99.90
19906;DHT22;10115;50.906;4.438;2023-03-01T01:43:36;-1.10;99.90
19906;DHT22;10115;50.906;4.438;2023-03-01T01:48:55;-1.20;99.90
19906;DHT22;10115;50.906;4.438;2023-03-01T01:51:29;-1.20;99.90
19906;DHT22;10115;50.906;4.438;2023-03-01T01:54:08;-1.30;99.90
19906;DHT22;10115;50.906;4.438;2023-03-01T01:56:37;-1.30;99.90
19906;DHT22;10115;50.906;4.438;2023-03-01T01:59:05;-1.30;99.90
19906;DHT22;10115;50.906;4.438;2023-03-01T02:01:31;-1.10;99.90
19906;DHT22;10115;50.906;4.438;2023-03-01T02:03:57;-1.10;99.90
19906;DHT22;10115;50.906;4.438;2023-03-01T02:06:26;-1.10;99.90
19906;DHT22;10115;50.906;4.438;2023-03-01T02:09:00;-1.10;99.90
19906;DHT22;10115;50.906;4.438;2023-03-01T02:11:29;-1.00;99.90
19906;DHT22;10115;50.906;4.438;2023-03-01T02:13:55;-1.20;99.90
19906;DHT22;10115;50.906;4.438;2023-03-01T02:16:21;-1.20;99.90
19906;DHT22;10115;50.906;4.438;2023-03-01T02:18:47;-1.20;99.90
19906;DHT22;10115;50.906;4.438;2023-03-01T02:23:44;-1.40;99.90
19906;DHT22;10115;50.906;4.438;2023-03-01T02:28:57;-1.40;99.90
19906;DHT22;10115;50.906;4.438;2023-03-01T02:31:23;-1.40;99.90
19906;DHT22;10115;50.906;4.438;2023-03-01T02:34:08;-1.40;99.90
19906;DHT22;10115;50.906;4.438;2023-03-01T02:36:37;-1.40;99.90
19906;DHT22;10115;50.906;4.438;2023-03-01T02:39:06;-1.50;99.90
19906;DHT22;10115;50.906;4.438;2023-03-01T02:41:36;-1.60;99.90
19906;DHT22;10115;50.906;4.438;2023-03-01T02:44:04;-1.60;99.90
19906;DHT22;10115;50.906;4.438;2023-03-01T02:46:29;-1.60;99.90
19906;DHT22;10115;50.906;4.438;2023-03-01T02:48:58;-1.60;99.90
19906;DHT22;10115;50.906;4.438;2023-03-01T02:56:46;-1.60;99.90
19906;DHT22;10115;50.906;4.438;2023-03-01T02:59:20;-1.60;99.90
19906;DHT22;10115;50.906;4.438;2023-03-01T03:01:48;-1.60;99.90
19906;DHT22;10115;50.906;4.438;2023-03-01T03:04:18;-1.70;99.90
19906;DHT22;10115;50.906;4.438;2023-03-01T03:06:45;-1.70;99.90
19906;DHT22;10115;50.906;4.438;2023-03-01T03:09:11;-1.70;99.90
19906;DHT22;10115;50.906;4.438;2023-03-01T03:11:37;-1.70;99.90
19906;DHT22;10115;50.906;4.438;2023-03-01T03:14:05;-1.60;99.90
19906;DHT22;10115;50.906;4.438;2023-03-01T03:16:31;-1.70;99.90
19906;DHT22;10115;50.906;4.438;2023-03-01T03:18:57;-1.70;99.90
19906;DHT22;10115;50.906;4.438;2023-03-01T03:21:31;-1.70;99.90
19906;DHT22;10115;50.906;4.438;2023-03-01T03:23:58;-1.70;99.90
19906;DHT22;10115;50.906;4.438;2023-03-01T03:26:24;-1.60;99.90
19906;DHT22;10115;50.906;4.438;2023-03-01T03:28:49;-1.60;99.90
19906;DHT22;10115;50.906;4.438;2023-03-01T03:31:15;-1.50;99.90
19906;DHT22;10115;50.906;4.438;2023-03-01T03:33:41;-1.60;99.90
19906;DHT22;10115;50.906;4.438;2023-03-01T03:36:07;-1.50;99.90
19906;DHT22;10115;50.906;4.438;2023-03-01T03:38:43;-1.50;99.90
19906;DHT22;10115;50.906;4.438;2023-03-01T03:41:09;-1.40;99.90
19906;DHT22;10115;50.906;4.438;2023-03-01T03:43:37;-1.40;99.90
19906;DHT22;10115;50.906;4.438;2023-03-01T03:46:04;-1.50;99.90
19906;DHT22;10115;50.906;4.438;2023-03-01T03:48:41;-1.50;99.90
19906;DHT22;10115;50.906;4.438;2023-03-01T03:51:10;-1.60;99.90
19906;DHT22;10115;50.906;4.438;2023-03-01T03:53:36;-1.60;99.90
19906;DHT22;10115;50.906;4.438;2023-03-01T03:56:01;-1.60;99.90
19906;DHT22;10115;50.906;4.438;2023-03-01T03:58:27;-1.70;99.90
19906;DHT22;10115;50.906;4.438;2023-03-01T04:00:55;-1.70;99.90
19906;DHT22;10115;50.906;4.438;2023-03-01T04:03:22;-1.70;99.90
19906;DHT22;10115;50.906;4.438;2023-03-01T04:05:48;-1.80;99.90
19906;DHT22;10115;50.906;4.438;2023-03-01T04:08:16;-1.80;99.90
19906;DHT22;10115;50.906;4.438;2023-03-01T04:10:46;-1.90;99.90
19906;DHT22;10115;50.906;4.438;2023-03-01T04:13:15;-1.90;99.90
19906;DHT22;10115;50.906;4.438;2023-03-01T04:15:41;-1.90;99.90
19906;DHT22;10115;50.906;4.438;2023-03-01T04:18:09;-1.90;99.90
19906;DHT22;10115;50.906;4.438;2023-03-01T04:20:37;-1.80;99.90
19906;DHT22;10115;50.906;4.438;2023-03-01T04:23:06;-1.90;99.90
19906;DHT22;10115;50.906;4.438;2023-03-01T04:25:59;-1.90;99.90
19906;DHT22;10115;50.906;4.438;2023-03-01T04:28:27;-2.00;99.90
19906;DHT22;10115;50.906;4.438;2023-03-01T04:30:54;-1.90;99.90
19906;DHT22;10115;50.906;4.438;2023-03-01T04:33:20;-2.00;99.90
19906;DHT22;10115;50.906;4.438;2023-03-01T04:35:46;-2.00;99.90
19906;DHT22;10115;50.906;4.438;2023-03-01T04:38:15;-2.00;99.90
19906;DHT22;10115;50.906;4.438;2023-03-01T04:40:41;-1.90;99.90
19906;DHT22;10115;50.906;4.438;2023-03-01T04:43:09;-1.90;99.90
19906;DHT22;10115;50.906;4.438;2023-03-01T04:45:35;-1.90;99.90
19906;DHT22;10115;50.906;4.438;2023-03-01T04:48:02;-1.90;99.90
19906;DHT22;10115;50.906;4.438;2023-03-01T04:50:28;-1.90;99.90
19906;DHT22;10115;50.906;4.438;2023-03-01T04:52:54;-2.00;99.90
19906;DHT22;10115;50.906;4.438;2023-03-01T04:55:24;-2.10;99.90
19906;DHT22;10115;50.906;4.438;2023-03-01T04:57:51;-2.10;99.90
19906;DHT22;10115;50.906;4.438;2023-03-01T05:00:17;-2.10;99.90
19906;DHT22;10115;50.906;4.438;2023-03-01T05:02:50;-2.10;99.90
19906;DHT22;10115;50.906;4.438;2023-03-01T05:07:55;-2.10;99.90
19906;DHT22;10115;50.906;4.438;2023-03-01T05:10:21;-2.10;99.90
19906;DHT22;10115;50.906;4.438;2023-03-01T05:12:47;-2.00;99.90
19906;DHT22;10115;50.906;4.438;2023-03-01T05:15:13;-2.10;99.90
19906;DHT22;10115;50.906;4.438;2023-03-01T05:17:39;-2.20;99.90
19906;DHT22;10115;50.906;4.438;2023-03-01T05:20:05;-2.20;99.90
19906;DHT22;10115;50.906;4.438;2023-03-01T05:22:36;-2.20;99.90
19906;DHT22;10115;50.906;4.438;2023-03-01T05:25:03;-2.20;99.90
19906;DHT22;10115;50.906;4.438;2023-03-01T05:27:29;-2.10;99.90
19906;DHT22;10115;50.906;4.438;2023-03-01T05:29:58;-2.10;99.90
19906;DHT22;10115;50.906;4.438;2023-03-01T05:32:24;-2.10;99.90
19906;DHT22;10115;50.906;4.438;2023-03-01T05:34:49;-2.20;99.90
19906;DHT22;10115;50.906;4.438;2023-03-01T05:37:17;-2.30;99.90
19906;DHT22;10115;50.906;4.438;2023-03-01T05:39:43;-2.30;99.90
19906;DHT22;10115;50.906;4.438;2023-03-01T05:42:11;-2.20;99.90
19906;DHT22;10115;50.906;4.438;2023-03-01T05:44:37;-2.30;99.90
19906;DHT22;10115;50.906;4.438;2023-03-01T05:47:03;-2.30;99.90
19906;DHT22;10115;50.906;4.438;2023-03-01T05:49:29;-2.30;99.90
19906;DHT22;10115;50.906;4.438;2023-03-01T05:51:55;-2.30;99.90
19906;DHT22;10115;50.906;4.438;2023-03-01T05:54:21;-2.40;99.90
19906;DHT22;10115;50.906;4.438;2023-03-01T05:56:47;-2.50;99.90
19906;DHT22;10115;50.906;4.438;2023-03-01T05:59:13;-2.50;99.90
19906;DHT22;10115;50.906;4.438;2023-03-01T06:01:40;-2.60;99.90
19906;DHT22;10115;50.906;4.438;2023-03-01T06:04:06;-2.50;99.90
19906;DHT22;10115;50.906;4.438;2023-03-01T06:06:35;-2.40;99.90
19906;DHT22;10115;50.906;4.438;2023-03-01T06:09:03;-2.50;99.90
19906;DHT22;10115;50.906;4.438;2023-03-01T06:11:29;-2.50;99.90
19906;DHT22;10115;50.906;4.438;2023-03-01T06:13:55;-2.50;99.90
19906;DHT22;10115;50.906;4.438;2023-03-01T06:16:20;-2.50;99.90
19906;DHT22;10115;50.906;4.438;2023-03-01T06:18:46;-2.40;99.90
19906;DHT22;10115;50.906;4.438;2023-03-01T06:21:12;-2.50;99.90
19906;DHT22;10115;50.906;4.438;2023-03-01T06:23:37;-2.40;99.90
19906;DHT22;10115;50.906;4.438;2023-03-01T06:26:07;-2.40;99.90
19906;DHT22;10115;50.906;4.438;2023-03-01T06:28:33;-2.50;99.90
19906;DHT22;10115;50.906;4.438;2023-03-01T06:30:59;-2.50;99.90
19906;DHT22;10115;50.906;4.438;2023-03-01T06:33:24;-2.60;99.90
19906;DHT22;10115;50.906;4.438;2023-03-01T06:35:51;-2.60;99.90
19906;DHT22;10115;50.906;4.438;2023-03-01T06:38:17;-2.50;99.90
19906;DHT22;10115;50.906;4.438;2023-03-01T06:40:44;-2.50;99.90
19906;DHT22;10115;50.906;4.438;2023-03-01T06:43:10;-2.40;99.90
19906;DHT22;10115;50.906;4.438;2023-03-01T06:45:37;-2.50;99.90
19906;DHT22;10115;50.906;4.438;2023-03-01T06:48:04;-2.50;99.90
19906;DHT22;10115;50.906;4.438;2023-03-01T06:50:30;-2.40;99.90
19906;DHT22;10115;50.906;4.438;2023-03-01T06:52:56;-2.50;99.90
19906;DHT22;10115;50.906;4.438;2023-03-01T06:55:22;-2.40;99.90
19906;DHT22;10115;50.906;4.438;2023-03-01T06:57:48;-2.40;99.90
19906;DHT22;10115;50.906;4.438;2023-03-01T07:00:14;-2.30;99.90
19906;DHT22;10115;50.906;4.438;2023-03-01T07:02:40;-2.30;99.90
19906;DHT22;10115;50.906;4.438;2023-03-01T07:05:06;-2.30;99.90
19906;DHT22;10115;50.906;4.438;2023-03-01T07:07:31;-2.30;99.90
19906;DHT22;10115;50.906;4.438;2023-03-01T07:09:57;-2.30;99.90
19906;DHT22;10115;50.906;4.438;2023-03-01T07:12:23;-2.20;99.90
19906;DHT22;10115;50.906;4.438;2023-03-01T07:14:48;-2.00;99.90
19906;DHT22;10115;50.906;4.438;2023-03-01T07:17:14;-2.00;99.90
19906;DHT22;10115;50.906;4.438;2023-03-01T07:19:40;-2.00;99.90
19906;DHT22;10115;50.906;4.438;2023-03-01T07:22:06;-1.80;99.90
19906;DHT22;10115;50.906;4.438;2023-03-01T07:24:33;-1.80;99.90
19906;DHT22;10115;50.906;4.438;2023-03-01T07:26:59;-1.70;99.90
19906;DHT22;10115;50.906;4.438;2023-03-01T07:29:25;-1.60;99.90
19906;DHT22;10115;50.906;4.438;2023-03-01T07:31:50;-1.40;99.90
19906;DHT22;10115;50.906;4.438;2023-03-01T07:34:16;-1.40;99.90
19906;DHT22;10115;50.906;4.438;2023-03-01T07:36:42;-1.30;99.90
19906;DHT22;10115;50.906;4.438;2023-03-01T07:39:09;-1.20;99.90
19906;DHT22;10115;50.906;4.438;2023-03-01T07:41:35;-1.10;99.90
19906;DHT22;10115;50.906;4.438;2023-03-01T07:44:01;-1.00;99.90
19906;DHT22;10115;50.906;4.438;2023-03-01T07:46:27;-1.00;99.90
19906;DHT22;10115;50.906;4.438;2023-03-01T07:48:53;-0.80;99.90
19906;DHT22;10115;50.906;4.438;2023-03-01T07:51:18;-0.90;99.90
19906;DHT22;10115;50.906;4.438;2023-03-01T07:53:46;-0.90;99.90
19906;DHT22;10115;50.906;4.438;2023-03-01T07:56:14;-0.80;99.90
19906;DHT22;10115;50.906;4.438;2023-03-01T07:58:42;-0.70;99.90
19906;DHT22;10115;50.906;4.438;2023-03-01T08:01:11;-0.60;99.90
19906;DHT22;10115;50.906;4.438;2023-03-01T08:03:37;-0.60;99.90
19906;DHT22;10115;50.906;4.438;2023-03-01T08:06:05;-0.50;99.90
19906;DHT22;10115;50.906;4.438;2023-03-01T08:08:31;-0.40;99.90
19906;DHT22;10115;50.906;4.438;2023-03-01T08:10:59;-0.40;99.90
19906;DHT22;10115;50.906;4.438;2023-03-01T08:13:24;-0.20;99.90
19906;DHT22;10115;50.906;4.438;2023-03-01T08:15:50;-0.10;99.90
19906;DHT22;10115;50.906;4.438;2023-03-01T08:18:17;-0.10;99.90
19906;DHT22;10115;50.906;4.438;2023-03-01T08:20:43;0.00;99.90
19906;DHT22;10115;50.906;4.438;2023-03-01T08:23:10;0.10;99.90
19906;DHT22;10115;50.906;4.438;2023-03-01T08:25:36;0.10;99.90
19906;DHT22;10115;50.906;4.438;2023-03-01T08:28:02;0.20;99.90
19906;DHT22;10115;50.906;4.438;2023-03-01T08:30:27;0.30;99.90
19906;DHT22;10115;50.906;4.438;2023-03-01T08:32:53;0.40;99.90
19906;DHT22;10115;50.906;4.438;2023-03-01T08:35:20;0.50;99.90
19906;DHT22;10115;50.906;4.438;2023-03-01T08:37:46;0.50;99.90
19906;DHT22;10115;50.906;4.438;2023-03-01T08:40:12;0.60;99.90
19906;DHT22;10115;50.906;4.438;2023-03-01T08:42:39;0.70;99.90
19906;DHT22;10115;50.906;4.438;2023-03-01T08:45:06;0.80;99.90
19906;DHT22;10115;50.906;4.438;2023-03-01T08:47:31;0.70;99.90
19906;DHT22;10115;50.906;4.438;2023-03-01T08:49:59;0.80;99.90
19906;DHT22;10115;50.906;4.438;2023-03-01T08:52:25;1.00;99.90
19906;DHT22;10115;50.906;4.438;2023-03-01T08:54:51;1.10;99.90
19906;DHT22;10115;50.906;4.438;2023-03-01T08:57:17;1.30;99.90
19906;DHT22;10115;50.906;4.438;2023-03-01T08:59:42;1.20;99.90
19906;DHT22;10115;50.906;4.438;2023-03-01T09:02:17;1.30;99.90
19906;DHT22;10115;50.906;4.438;2023-03-01T09:04:43;1.40;99.90
19906;DHT22;10115;50.906;4.438;2023-03-01T09:07:10;1.40;99.90
19906;DHT22;10115;50.906;4.438;2023-03-01T09:09:36;1.40;99.90
19906;DHT22;10115;50.906;4.438;2023-03-01T09:12:02;1.50;99.90
19906;DHT22;10115;50.906;4.438;2023-03-01T09:14:28;1.60;99.90
19906;DHT22;10115;50.906;4.438;2023-03-01T09:16:54;1.60;99.90
19906;DHT22;10115;50.906;4.438;2023-03-01T09:19:20;1.70;99.90
19906;DHT22;10115;50.906;4.438;2023-03-01T09:21:45;1.70;99.90
19906;DHT22;10115;50.906;4.438;2023-03-01T09:24:19;1.80;99.90
19906;DHT22;10115;50.906;4.438;2023-03-01T09:26:45;1.90;99.90
19906;DHT22;10115;50.906;4.438;2023-03-01T09:29:12;2.10;99.90
19906;DHT22;10115;50.906;4.438;2023-03-01T09:31:38;2.10;99.90
19906;DHT22;10115;50.906;4.438;2023-03-01T09:34:04;2.10;99.90
19906;DHT22;10115;50.906;4.438;2023-03-01T09:36:30;2.10;99.90
19906;DHT22;10115;50.906;4.438;2023-03-01T09:38:57;2.30;99.90
19906;DHT22;10115;50.906;4.438;2023-03-01T09:41:46;2.30;99.90
19906;DHT22;10115;50.906;4.438;2023-03-01T09:44:21;2.40;99.90
19906;DHT22;10115;50.906;4.438;2023-03-01T09:46:49;2.50;99.90
19906;DHT22;10115;50.906;4.438;2023-03-01T09:49:22;2.50;99.90
19906;DHT22;10115;50.906;4.438;2023-03-01T09:52:23;2.60;99.90
19906;DHT22;10115;50.906;4.438;2023-03-01T09:54:54;2.70;99.90
19906;DHT22;10115;50.906;4.438;2023-03-01T10:02:43;3.00;99.90
19906;DHT22;10115;50.906;4.438;2023-03-01T10:10:40;3.10;99.90
19906;DHT22;10115;50.906;4.438;2023-03-01T10:16:49;3.10;99.90
19906;DHT22;10115;50.906;4.438;2023-03-01T10:19:47;3.20;99.90
19906;DHT22;10115;50.906;4.438;2023-03-01T10:22:13;3.40;99.90
19906;DHT22;10115;50.906;4.438;2023-03-01T10:24:41;3.40;99.90
19906;DHT22;10115;50.906;4.438;2023-03-01T10:27:32;3.40;99.90
19906;DHT22;10115;50.906;4.438;2023-03-01T10:32:57;3.40;99.90
19906;DHT22;10115;50.906;4.438;2023-03-01T10:35:25;3.50;99.90
19906;DHT22;10115;50.906;4.438;2023-03-01T10:38:07;3.70;99.90
19906;DHT22;10115;50.906;4.438;2023-03-01T10:40:34;3.70;99.90
19906;DHT22;10115;50.906;4.438;2023-03-01T10:43:03;3.80;99.90
19906;DHT22;10115;50.906;4.438;2023-03-01T10:48:12;3.90;99.90
19906;DHT22;10115;50.906;4.438;2023-03-01T10:50:39;4.10;99.90
19906;DHT22;10115;50.906;4.438;2023-03-01T10:53:24;4.10;99.90
19906;DHT22;10115;50.906;4.438;2023-03-01T10:58:36;4.20;99.90
19906;DHT22;10115;50.906;4.438;2023-03-01T11:01:05;4.20;99.90
19906;DHT22;10115;50.906;4.438;2023-03-01T11:03:38;4.20;99.90
19906;DHT22;10115;50.906;4.438;2023-03-01T11:08:45;4.40;99.90
19906;DHT22;10115;50.906;4.438;2023-03-01T11:11:20;4.60;99.90
19906;DHT22;10115;50.906;4.438;2023-03-01T11:14:06;4.60;99.90
19906;DHT22;10115;50.906;4.438;2023-03-01T11:16:38;4.70;99.90
19906;DHT22;10115;50.906;4.438;2023-03-01T11:19:17;4.50;99.90
19906;DHT22;10115;50.906;4.438;2023-03-01T11:24:17;4.70;99.90
19906;DHT22;10115;50.906;4.438;2023-03-01T11:26:51;4.90;99.90
19906;DHT22;10115;50.906;4.438;2023-03-01T11:29:30;4.90;99.90
19906;DHT22;10115;50.906;4.438;2023-03-01T11:32:00;5.10;99.90
19906;DHT22;10115;50.906;4.438;2023-03-01T11:34:43;5.20;99.90
19906;DHT22;10115;50.906;4.438;2023-03-01T11:37:41;5.40;99.90
19906;DHT22;10115;50.906;4.438;2023-03-01T11:40:20;5.40;99.90
19906;DHT22;10115;50.906;4.438;2023-03-01T11:43:05;5.20;99.90
19906;DHT22;10115;50.906;4.438;2023-03-01T11:54:21;5.40;99.90
19906;DHT22;10115;50.906;4.438;2023-03-01T11:57:04;5.40;99.90
19906;DHT22;10115;50.906;4.438;2023-03-01T12:10:41;5.90;99.90
19906;DHT22;10115;50.906;4.438;2023-03-01T12:16:20;5.90;99.90
19906;DHT22;10115;50.906;4.438;2023-03-01T12:21:32;6.10;99.90
19906;DHT22;10115;50.906;4.438;2023-03-01T12:27:06;6.30;99.90
19906;DHT22;10115;50.906;4.438;2023-03-01T12:30:04;6.40;99.90
19906;DHT22;10115;50.906;4.438;2023-03-01T12:46:21;6.50;99.90
19906;DHT22;10115;50.906;4.438;2023-03-01T12:51:38;6.40;99.90
19906;DHT22;10115;50.906;4.438;2023-03-01T12:54:24;6.60;99.90
19906;DHT22;10115;50.906;4.438;2023-03-01T12:56:51;6.60;99.90
19906;DHT22;10115;50.906;4.438;2023-03-01T12:59:32;6.50;99.90
19906;DHT22;10115;50.906;4.438;2023-03-01T13:09:45;6.70;99.90
19906;DHT22;10115;50.906;4.438;2023-03-01T13:18:03;6.90;99.90
19906;DHT22;10115;50.906;4.438;2023-03-01T13:20:31;7.00;99.90
19906;DHT22;10115;50.906;4.438;2023-03-01T13:26:16;7.10;99.90
19906;DHT22;10115;50.906;4.438;2023-03-01T13:33:49;7.20;99.90
19906;DHT22;10115;50.906;4.438;2023-03-01T13:38:58;7.30;99.90
19906;DHT22;10115;50.906;4.438;2023-03-01T13:49:42;7.40;99.90
19906;DHT22;10115;50.906;4.438;2023-03-01T13:52:40;7.60;99.90
19906;DHT22;10115;50.906;4.438;2023-03-01T13:55:50;7.80;99.90
19906;DHT22;10115;50.906;4.438;2023-03-01T13:58:27;8.30;99.90
19906;DHT22;10115;50.906;4.438;2023-03-01T14:01:01;8.60;99.90
19906;DHT22;10115;50.906;4.438;2023-03-01T14:03:27;9.60;99.90
19906;DHT22;10115;50.906;4.438;2023-03-01T14:06:08;10.00;99.90
19906;DHT22;10115;50.906;4.438;2023-03-01T14:08:36;10.80;99.90
19906;DHT22;10115;50.906;4.438;2023-03-01T14:16:42;11.50;99.90
19906;DHT22;10115;50.906;4.438;2023-03-01T14:19:27;11.50;99.90
19906;DHT22;10115;50.906;4.438;2023-03-01T14:24:30;11.40;99.90
19906;DHT22;10115;50.906;4.438;2023-03-01T14:27:00;11.90;99.90
19906;DHT22;10115;50.906;4.438;2023-03-01T14:29:37;12.10;99.90
19906;DHT22;10115;50.906;4.438;2023-03-01T14:32:12;12.40;99.90
19906;DHT22;10115;50.906;4.438;2023-03-01T14:34:44;13.10;99.90
19906;DHT22;10115;50.906;4.438;2023-03-01T14:37:22;13.10;99.90
19906;DHT22;10115;50.906;4.438;2023-03-01T14:39:50;14.00;99.90
19906;DHT22;10115;50.906;4.438;2023-03-01T14:42:16;13.50;99.90
19906;DHT22;10115;50.906;4.438;2023-03-01T14:44:47;12.90;99.90
19906;DHT22;10115;50.906;4.438;2023-03-01T14:47:20;12.90;99.90
19906;DHT22;10115;50.906;4.438;2023-03-01T14:49:53;13.50;99.90
19906;DHT22;10115;50.906;4.438;2023-03-01T14:52:22;13.70;99.60
19906;DHT22;10115;50.906;4.438;2023-03-01T14:54:52;13.60;98.90
19906;DHT22;10115;50.906;4.438;2023-03-01T14:57:26;13.30;98.90
19906;DHT22;10115;50.906;4.438;2023-03-01T14:59:53;12.80;99.50
19906;DHT22;10115;50.906;4.438;2023-03-01T15:02:23;13.30;98.60
19906;DHT22;10115;50.906;4.438;2023-03-01T15:04:55;12.80;97.90
19906;DHT22;10115;50.906;4.438;2023-03-01T15:07:35;12.60;98.00
19906;DHT22;10115;50.906;4.438;2023-03-01T15:10:04;12.70;97.90
19906;DHT22;10115;50.906;4.438;2023-03-01T15:12:38;12.40;97.30
19906;DHT22;10115;50.906;4.438;2023-03-01T15:15:36;12.40;97.60
19906;DHT22;10115;50.906;4.438;2023-03-01T15:18:20;12.60;97.90
19906;DHT22;10115;50.906;4.438;2023-03-01T15:20:48;12.90;98.10
19906;DHT22;10115;50.906;4.438;2023-03-01T15:25:49;12.40;98.00
19906;DHT22;10115;50.906;4.438;2023-03-01T15:28:29;12.60;97.70
19906;DHT22;10115;50.906;4.438;2023-03-01T15:31:19;12.10;97.70
19906;DHT22;10115;50.906;4.438;2023-03-01T15:33:46;11.80;97.70
19906;DHT22;10115;50.906;4.438;2023-03-01T15:36:38;11.90;97.60
19906;DHT22;10115;50.906;4.438;2023-03-01T15:39:05;12.60;97.60
19906;DHT22;10115;50.906;4.438;2023-03-01T15:41:48;12.80;96.90
19906;DHT22;10115;50.906;4.438;2023-03-01T15:44:25;13.20;96.70
19906;DHT22;10115;50.906;4.438;2023-03-01T15:46:51;13.60;96.70
19906;DHT22;10115;50.906;4.438;2023-03-01T15:49:37;13.90;96.70
19906;DHT22;10115;50.906;4.438;2023-03-01T15:52:04;13.50;95.50
19906;DHT22;10115;50.906;4.438;2023-03-01T15:54:31;13.00;95.80
19906;DHT22;10115;50.906;4.438;2023-03-01T15:56:57;13.10;96.50
19906;DHT22;10115;50.906;4.438;2023-03-01T15:59:22;12.80;95.60
19906;DHT22;10115;50.906;4.438;2023-03-01T16:01:48;12.70;96.80
19906;DHT22;10115;50.906;4.438;2023-03-01T16:04:16;12.80;96.10
19906;DHT22;10115;50.906;4.438;2023-03-01T16:06:55;12.00;96.80
19906;DHT22;10115;50.906;4.438;2023-03-01T16:09:25;11.20;97.10
19906;DHT22;10115;50.906;4.438;2023-03-01T16:11:52;10.50;97.80
19906;DHT22;10115;50.906;4.438;2023-03-01T16:14:18;10.50;98.50
19906;DHT22;10115;50.906;4.438;2023-03-01T16:16:45;10.70;98.20
19906;DHT22;10115;50.906;4.438;2023-03-01T16:19:11;11.10;98.40
19906;DHT22;10115;50.906;4.438;2023-03-01T16:21:37;11.20;98.20
19906;DHT22;10115;50.906;4.438;2023-03-01T16:24:03;10.50;98.00
19906;DHT22;10115;50.906;4.438;2023-03-01T16:26:29;9.70;98.80
19906;DHT22;10115;50.906;4.438;2023-03-01T16:28:56;9.00;99.40
19906;DHT22;10115;50.906;4.438;2023-03-01T16:31:22;8.50;99.90
19906;DHT22;10115;50.906;4.438;2023-03-01T16:33:48;8.00;99.90
19906;DHT22;10115;50.906;4.438;2023-03-01T16:36:18;7.60;99.90
19906;DHT22;10115;50.906;4.438;2023-03-01T16:38:45;7.40;99.90
19906;DHT22;10115;50.906;4.438;2023-03-01T16:41:17;7.20;99.90
19906;DHT22;10115;50.906;4.438;2023-03-01T16:43:44;7.00;99.90
19906;DHT22;10115;50.906;4.438;2023-03-01T16:46:14;7.10;99.90
19906;DHT22;10115;50.906;4.438;2023-03-01T16:48:41;7.00;99.90
19906;DHT22;10115;50.906;4.438;2023-03-01T16:51:07;7.00;99.90
19906;DHT22;10115;50.906;4.438;2023-03-01T16:53:34;6.80;99.90
19906;DHT22;10115;50.906;4.438;2023-03-01T16:56:05;6.60;99.90
19906;DHT22;10115;50.906;4.438;2023-03-01T16:58:31;6.60;99.90
19906;DHT22;10115;50.906;4.438;2023-03-01T17:00:56;6.50;99.90
19906;DHT22;10115;50.906;4.438;2023-03-01T17:03:28;6.50;99.90
19906;DHT22;10115;50.906;4.438;2023-03-01T17:05:54;6.40;99.90
19906;DHT22;10115;50.906;4.438;2023-03-01T17:08:20;6.30;99.90
19906;DHT22;10115;50.906;4.438;2023-03-01T17:10:46;6.20;99.90
19906;DHT22;10115;50.906;4.438;2023-03-01T17:13:11;6.00;99.90
19906;DHT22;10115;50.906;4.438;2023-03-01T17:15:41;6.00;99.90
19906;DHT22;10115;50.906;4.438;2023-03-01T17:18:07;5.90;99.90
19906;DHT22;10115;50.906;4.438;2023-03-01T17:20:34;5.80;99.90
19906;DHT22;10115;50.906;4.438;2023-03-01T17:22:59;5.70;99.90
19906;DHT22;10115;50.906;4.438;2023-03-01T17:25:25;5.70;99.90
19906;DHT22;10115;50.906;4.438;2023-03-01T17:27:51;5.60;99.90
19906;DHT22;10115;50.906;4.438;2023-03-01T17:30:17;5.50;99.90
19906;DHT22;10115;50.906;4.438;2023-03-01T17:32:42;5.40;99.90
19906;DHT22;10115;50.906;4.438;2023-03-01T17:35:09;5.40;99.90
19906;DHT22;10115;50.906;4.438;2023-03-01T17:37:37;5.40;99.90
19906;DHT22;10115;50.906;4.438;2023-03-01T17:40:05;5.30;99.90
19906;DHT22;10115;50.906;4.438;2023-03-01T17:42:31;5.30;99.90
19906;DHT22;10115;50.906;4.438;2023-03-01T17:44:57;5.20;99.90
19906;DHT22;10115;50.906;4.438;2023-03-01T17:47:23;5.10;99.90
19906;DHT22;10115;50.906;4.438;2023-03-01T17:49:49;5.10;99.90
19906;DHT22;10115;50.906;4.438;2023-03-01T17:52:14;5.00;99.90
19906;DHT22;10115;50.906;4.438;2023-03-01T17:54:40;5.00;99.90
19906;DHT22;10115;50.906;4.438;2023-03-01T17:57:06;4.90;99.90
19906;DHT22;10115;50.906;4.438;2023-03-01T17:59:31;4.90;99.90
19906;DHT22;10115;50.906;4.438;2023-03-01T18:02:00;4.90;99.90